sensor_id;sensor_type;location;lat;lon;timestamp;temperature;humidity
17092;DHT22;8661;45.700;4.880;2023-05-02T00:01:15;11.50;99.90
17092;DHT22;8661;45.700;4.880;2023-05-02T00:03:42;11.50;99.90
17092;DHT22;8661;45.700;4.880;2023-05-02T00:06:09;11.50;99.90
17092;DHT22;8661;45.700;4.880;2023-05-02T00:08:37;11.40;99.90
17092;DHT22;8661;45.700;4.880;2023-05-02T00:11:04;11.40;99.90
17092;DHT22;8661;45.700;4.880;2023-05-02T00:13:31;11.30;99.90
17092;DHT22;8661;45.700;4.880;2023-05-02T00:15:59;11.30;99.90
17092;DHT22;8661;45.700;4.880;2023-05-02T00:18:26;11.40;99.90
17092;DHT22;8661;45.700;4.880;2023-05-02T00:20:54;11.30;99.90
17092;DHT22;8661;45.700;4.880;2023-05-02T00:23:21;11.20;99.90
17092;DHT22;8661;45.700;4.880;2023-05-02T00:25:48;11.30;99.90
17092;DHT22;8661;45.700;4.880;2023-05-02T00:28:15;11.30;99.90
17092;DHT22;8661;45.700;4.880;2023-05-02T00:30:43;11.20;99.90
17092;DHT22;8661;45.700;4.880;2023-05-02T00:33:11;11.20;99.90
17092;DHT22;8661;45.700;4.880;2023-05-02T00:35:39;11.20;99.90
17092;DHT22;8661;45.700;4.880;2023-05-02T00:38:06;11.20;99.90
17092;DHT22;8661;45.700;4.880;2023-05-02T00:40:42;11.20;99.90
17092;DHT22;8661;45.700;4.880;2023-05-02T00:43:11;11.20;99.90
17092;DHT22;8661;45.700;4.880;2023-05-02T00:45:38;11.10;99.90
17092;DHT22;8661;45.700;4.880;2023-05-02T00:48:06;11.10;99.90
17092;DHT22;8661;45.700;4.880;2023-05-02T00:50:36;11.10;99.90
17092;DHT22;8661;45.700;4.880;2023-05-02T00:53:04;11.10;99.90
17092;DHT22;8661;45.700;4.880;2023-05-02T00:55:31;11.10;99.90
17092;DHT22;8661;45.700;4.880;2023-05-02T00:58:00;11.10;99.90
17092;DHT22;8661;45.700;4.880;2023-05-02T01:00:33;11.10;99.90
17092;DHT22;8661;45.700;4.880;2023-05-02T01:03:19;11.10;99.90
17092;DHT22;8661;45.700;4.880;2023-05-02T01:06:03;11.10;99.90
17092;DHT22;8661;45.700;4.880;2023-05-02T01:08:36;11.10;99.90
17092;DHT22;8661;45.700;4.880;2023-05-02T01:11:12;11.10;99.90
17092;DHT22;8661;45.700;4.880;2023-05-02T01:13:42;11.10;99.90
17092;DHT22;8661;45.700;4.880;2023-05-02T01:16:11;11.00;99.90
17092;DHT22;8661;45.700;4.880;2023-05-02T01:18:41;11.00;99.90
17092;DHT22;8661;45.700;4.880;2023-05-02T01:21:10;11.00;99.90
17092;DHT22;8661;45.700;4.880;2023-05-02T01:23:44;11.00;99.90
17092;DHT22;8661;45.700;4.880;2023-05-02T01:26:18;10.90;99.90
17092;DHT22;8661;45.700;4.880;2023-05-02T01:28:56;10.90;99.90
17092;DHT22;8661;45.700;4.880;2023-05-02T01:31:24;11.00;99.90
17092;DHT22;8661;45.700;4.880;2023-05-02T01:33:53;11.00;99.90
17092;DHT22;8661;45.700;4.880;2023-05-02T01:36:20;11.00;99.90
17092;DHT22;8661;45.700;4.880;2023-05-02T01:38:49;11.00;99.90
17092;DHT22;8661;45.700;4.880;2023-05-02T01:41:16;11.00;99.90
17092;DHT22;8661;45.700;4.880;2023-05-02T01:43:45;11.00;99.90
17092;DHT22;8661;45.700;4.880;2023-05-02T01:46:14;11.10;99.90
17092;DHT22;8661;45.700;4.880;2023-05-02T01:48:43;11.10;99.90
17092;DHT22;8661;45.700;4.880;2023-05-02T01:51:11;11.10;99.90
17092;DHT22;8661;45.700;4.880;2023-05-02T01:53:41;11.10;99.90
17092;DHT22;8661;45.700;4.880;2023-05-02T01:56:09;11.20;99.90
17092;DHT22;8661;45.700;4.880;2023-05-02T01:58:37;11.20;99.90
17092;DHT22;8661;45.700;4.880;2023-05-02T02:01:05;11.30;99.90
17092;DHT22;8661;45.700;4.880;2023-05-02T02:03:33;11.30;99.90
17092;DHT22;8661;45.700;4.880;2023-05-02T02:06:00;11.20;99.90
17092;DHT22;8661;45.700;4.880;2023-05-02T02:08:28;11.30;99.90
17092;DHT22;8661;45.700;4.880;2023-05-02T02:10:58;11.30;99.90
17092;DHT22;8661;45.700;4.880;2023-05-02T02:13:29;11.30;99.90
17092;DHT22;8661;45.700;4.880;2023-05-02T02:16:00;11.30;99.90
17092;DHT22;8661;45.700;4.880;2023-05-02T02:18:28;11.30;99.90
17092;DHT22;8661;45.700;4.880;2023-05-02T02:20:59;11.20;99.90
17092;DHT22;8661;45.700;4.880;2023-05-02T02:23:27;11.20;99.90
17092;DHT22;8661;45.700;4.880;2023-05-02T02:25:56;11.20;99.90
17092;DHT22;8661;45.700;4.880;2023-05-02T02:28:23;11.20;99.90
17092;DHT22;8661;45.700;4.880;2023-05-02T02:30:50;11.20;99.90
17092;DHT22;8661;45.700;4.880;2023-05-02T02:33:17;11.20;99.90
17092;DHT22;8661;45.700;4.880;2023-05-02T02:35:51;11.20;99.90
17092;DHT22;8661;45.700;4.880;2023-05-02T02:38:26;11.20;99.90
17092;DHT22;8661;45.700;4.880;2023-05-02T02:41:02;11.20;99.90
17092;DHT22;8661;45.700;4.880;2023-05-02T02:43:35;11.20;99.90
17092;DHT22;8661;45.700;4.880;2023-05-02T02:46:13;11.30;99.90
17092;DHT22;8661;45.700;4.880;2023-05-02T02:48:47;11.30;99.90
17092;DHT22;8661;45.700;4.880;2023-05-02T02:51:24;11.30;99.90
17092;DHT22;8661;45.700;4.880;2023-05-02T02:53:59;11.30;99.90
17092;DHT22;8661;45.700;4.880;2023-05-02T02:56:32;11.40;99.90
17092;DHT22;8661;45.700;4.880;2023-05-02T02:59:08;11.40;99.90
17092;DHT22;8661;45.700;4.880;2023-05-02T03:01:40;11.50;99.90
17092;DHT22;8661;45.700;4.880;2023-05-02T03:04:08;11.50;99.90
17092;DHT22;8661;45.700;4.880;2023-05-02T03:06:36;11.60;99.90
17092;DHT22;8661;45.700;4.880;2023-05-02T03:09:05;11.60;99.90
17092;DHT22;8661;45.700;4.880;2023-05-02T03:11:32;11.60;99.90
17092;DHT22;8661;45.700;4.880;2023-05-02T03:13:58;11.60;99.90
17092;DHT22;8661;45.700;4.880;2023-05-02T03:16:34;11.60;99.90
17092;DHT22;8661;45.700;4.880;2023-05-02T03:19:02;11.60;99.90
17092;DHT22;8661;45.700;4.880;2023-05-02T03:21:29;11.60;99.90
17092;DHT22;8661;45.700;4.880;2023-05-02T03:23:57;11.60;99.90
17092;DHT22;8661;45.700;4.880;2023-05-02T03:26:26;11.60;99.90
17092;DHT22;8661;45.700;4.880;2023-05-02T03:28:53;11.60;99.90
17092;DHT22;8661;45.700;4.880;2023-05-02T03:31:21;11.60;99.90
17092;DHT22;8661;45.700;4.880;2023-05-02T03:33:47;11.60;99.90
17092;DHT22;8661;45.700;4.880;2023-05-02T03:36:14;11.60;99.90
17092;DHT22;8661;45.700;4.880;2023-05-02T03:38:42;11.60;99.90
17092;DHT22;8661;45.700;4.880;2023-05-02T03:41:08;11.60;99.90
17092;DHT22;8661;45.700;4.880;2023-05-02T03:43:37;11.50;99.90
17092;DHT22;8661;45.700;4.880;2023-05-02T03:46:05;11.50;99.90
17092;DHT22;8661;45.700;4.880;2023-05-02T03:48:32;11.50;99.90
17092;DHT22;8661;45.700;4.880;2023-05-02T03:51:00;11.40;99.90
17092;DHT22;8661;45.700;4.880;2023-05-02T03:53:27;11.40;99.90
17092;DHT22;8661;45.700;4.880;2023-05-02T03:55:54;11.40;99.90
17092;DHT22;8661;45.700;4.880;2023-05-02T03:58:21;11.40;99.90
17092;DHT22;8661;45.700;4.880;2023-05-02T04:00:51;11.40;99.90
17092;DHT22;8661;45.700;4.880;2023-05-02T04:03:18;11.40;99.90
17092;DHT22;8661;45.700;4.880;2023-05-02T04:05:45;11.40;99.90
17092;DHT22;8661;45.700;4.880;2023-05-02T04:08:12;11.40;99.90
17092;DHT22;8661;45.700;4.880;2023-05-02T04:10:39;11.40;99.90
17092;DHT22;8661;45.700;4.880;2023-05-02T04:13:06;11.40;99.90
17092;DHT22;8661;45.700;4.880;2023-05-02T04:15:32;11.30;99.90
17092;DHT22;8661;45.700;4.880;2023-05-02T04:18:01;11.40;99.90
17092;DHT22;8661;45.700;4.880;2023-05-02T04:20:28;11.30;99.90
17092;DHT22;8661;45.700;4.880;2023-05-02T04:22:55;11.40;99.90
17092;DHT22;8661;45.700;4.880;2023-05-02T04:25:22;11.30;99.90
17092;DHT22;8661;45.700;4.880;2023-05-02T04:27:49;11.40;99.90
17092;DHT22;8661;45.700;4.880;2023-05-02T04:30:16;11.40;99.90
17092;DHT22;8661;45.700;4.880;2023-05-02T04:32:42;11.30;99.90
17092;DHT22;8661;45.700;4.880;2023-05-02T04:35:11;11.30;99.90
17092;DHT22;8661;45.700;4.880;2023-05-02T04:37:39;11.30;99.90
17092;DHT22;8661;45.700;4.880;2023-05-02T04:40:07;11.30;99.90
17092;DHT22;8661;45.700;4.880;2023-05-02T04:42:34;11.40;99.90
17092;DHT22;8661;45.700;4.880;2023-05-02T04:45:01;11.40;99.90
17092;DHT22;8661;45.700;4.880;2023-05-02T04:47:28;11.40;99.90
17092;DHT22;8661;45.700;4.880;2023-05-02T04:49:55;11.50;99.90
17092;DHT22;8661;45.700;4.880;2023-05-02T04:52:23;11.50;99.90
17092;DHT22;8661;45.700;4.880;2023-05-02T04:54:53;11.50;99.90
17092;DHT22;8661;45.700;4.880;2023-05-02T04:57:20;11.50;99.90
17092;DHT22;8661;45.700;4.880;2023-05-02T04:59:46;11.60;99.90
17092;DHT22;8661;45.700;4.880;2023-05-02T05:02:13;11.60;99.90
17092;DHT22;8661;45.700;4.880;2023-05-02T05:04:40;11.70;99.90
17092;DHT22;8661;45.700;4.880;2023-05-02T05:07:07;11.70;99.90
17092;DHT22;8661;45.700;4.880;2023-05-02T05:09:35;11.70;99.90
17092;DHT22;8661;45.700;4.880;2023-05-02T05:12:02;11.70;99.90
17092;DHT22;8661;45.700;4.880;2023-05-02T05:14:29;11.70;99.90
17092;DHT22;8661;45.700;4.880;2023-05-02T05:16:56;11.80;99.90
17092;DHT22;8661;45.700;4.880;2023-05-02T05:19:24;11.90;99.90
17092;DHT22;8661;45.700;4.880;2023-05-02T05:21:50;11.90;99.90
17092;DHT22;8661;45.700;4.880;2023-05-02T05:24:17;12.00;99.90
17092;DHT22;8661;45.700;4.880;2023-05-02T05:26:46;12.10;99.90
17092;DHT22;8661;45.700;4.880;2023-05-02T05:29:13;12.10;99.90
17092;DHT22;8661;45.700;4.880;2023-05-02T05:31:40;12.30;99.90
17092;DHT22;8661;45.700;4.880;2023-05-02T05:34:07;12.50;99.90
17092;DHT22;8661;45.700;4.880;2023-05-02T05:36:34;12.60;99.90
17092;DHT22;8661;45.700;4.880;2023-05-02T05:39:01;12.70;99.90
17092;DHT22;8661;45.700;4.880;2023-05-02T05:41:28;12.90;99.90
17092;DHT22;8661;45.700;4.880;2023-05-02T05:43:57;13.10;99.90
17092;DHT22;8661;45.700;4.880;2023-05-02T05:46:24;13.30;99.90
17092;DHT22;8661;45.700;4.880;2023-05-02T05:48:51;13.40;99.90
17092;DHT22;8661;45.700;4.880;2023-05-02T05:51:17;13.60;99.90
17092;DHT22;8661;45.700;4.880;2023-05-02T05:53:44;13.80;99.90
17092;DHT22;8661;45.700;4.880;2023-05-02T05:56:12;13.90;99.90
17092;DHT22;8661;45.700;4.880;2023-05-02T05:58:39;14.20;99.90
17092;DHT22;8661;45.700;4.880;2023-05-02T06:01:08;14.40;99.90
17092;DHT22;8661;45.700;4.880;2023-05-02T06:03:36;14.50;99.90
17092;DHT22;8661;45.700;4.880;2023-05-02T06:06:03;14.80;99.90
17092;DHT22;8661;45.700;4.880;2023-05-02T06:08:30;15.00;99.90
17092;DHT22;8661;45.700;4.880;2023-05-02T06:10:57;15.30;99.90
17092;DHT22;8661;45.700;4.880;2023-05-02T06:13:24;15.60;99.90
17092;DHT22;8661;45.700;4.880;2023-05-02T06:15:51;15.70;99.90
17092;DHT22;8661;45.700;4.880;2023-05-02T06:18:19;15.60;99.90
17092;DHT22;8661;45.700;4.880;2023-05-02T06:20:46;15.80;99.90
17092;DHT22;8661;45.700;4.880;2023-05-02T06:23:13;16.00;99.90
17092;DHT22;8661;45.700;4.880;2023-05-02T06:25:40;16.10;99.90
17092;DHT22;8661;45.700;4.880;2023-05-02T06:28:07;16.20;99.90
17092;DHT22;8661;45.700;4.880;2023-05-02T06:30:34;16.10;99.90
17092;DHT22;8661;45.700;4.880;2023-05-02T06:33:03;16.20;99.90
17092;DHT22;8661;45.700;4.880;2023-05-02T06:35:32;16.20;99.90
17092;DHT22;8661;45.700;4.880;2023-05-02T06:37:58;16.00;99.90
17092;DHT22;8661;45.700;4.880;2023-05-02T06:40:25;16.00;99.90
17092;DHT22;8661;45.700;4.880;2023-05-02T06:42:52;16.00;99.90
17092;DHT22;8661;45.700;4.880;2023-05-02T06:45:19;16.00;99.90
17092;DHT22;8661;45.700;4.880;2023-05-02T06:47:46;15.90;99.90
17092;DHT22;8661;45.700;4.880;2023-05-02T06:50:13;15.80;99.90
17092;DHT22;8661;45.700;4.880;2023-05-02T06:52:41;15.80;99.90
17092;DHT22;8661;45.700;4.880;2023-05-02T06:55:08;15.80;99.90
17092;DHT22;8661;45.700;4.880;2023-05-02T06:57:35;15.70;99.90
17092;DHT22;8661;45.700;4.880;2023-05-02T07:00:02;15.60;99.90
17092;DHT22;8661;45.700;4.880;2023-05-02T07:02:29;15.60;99.90
17092;DHT22;8661;45.700;4.880;2023-05-02T07:04:56;15.40;99.90
17092;DHT22;8661;45.700;4.880;2023-05-02T07:07:23;15.40;99.90
17092;DHT22;8661;45.700;4.880;2023-05-02T07:09:51;15.40;99.90
17092;DHT22;8661;45.700;4.880;2023-05-02T07:12:18;15.40;99.90
17092;DHT22;8661;45.700;4.880;2023-05-02T07:14:45;15.50;99.90
17092;DHT22;8661;45.700;4.880;2023-05-02T07:17:12;15.60;99.90
17092;DHT22;8661;45.700;4.880;2023-05-02T07:19:40;15.70;99.90
17092;DHT22;8661;45.700;4.880;2023-05-02T07:22:07;15.70;99.90
17092;DHT22;8661;45.700;4.880;2023-05-02T07:24:33;15.70;99.90
17092;DHT22;8661;45.700;4.880;2023-05-02T07:27:02;15.70;99.90
17092;DHT22;8661;45.700;4.880;2023-05-02T07:29:30;15.80;99.90
17092;DHT22;8661;45.700;4.880;2023-05-02T07:31:56;15.90;99.90
17092;DHT22;8661;45.700;4.880;2023-05-02T07:34:23;16.00;99.90
17092;DHT22;8661;45.700;4.880;2023-05-02T07:36:50;16.00;99.90
17092;DHT22;8661;45.700;4.880;2023-05-02T07:39:17;15.90;99.90
17092;DHT22;8661;45.700;4.880;2023-05-02T07:41:44;15.90;99.90
17092;DHT22;8661;45.700;4.880;2023-05-02T07:44:12;16.20;99.90
17092;DHT22;8661;45.700;4.880;2023-05-02T07:46:39;16.60;99.90
17092;DHT22;8661;45.700;4.880;2023-05-02T07:49:06;17.20;99.90
17092;DHT22;8661;45.700;4.880;2023-05-02T07:51:33;17.50;99.90
17092;DHT22;8661;45.700;4.880;2023-05-02T07:54:00;17.60;99.90
17092;DHT22;8661;45.700;4.880;2023-05-02T07:56:27;17.90;99.90
17092;DHT22;8661;45.700;4.880;2023-05-02T07:58:54;18.70;99.90
17092;DHT22;8661;45.700;4.880;2023-05-02T08:01:22;19.40;99.90
17092;DHT22;8661;45.700;4.880;2023-05-02T08:03:49;19.60;99.90
17092;DHT22;8661;45.700;4.880;2023-05-02T08:06:16;19.80;99.90
17092;DHT22;8661;45.700;4.880;2023-05-02T08:08:43;20.10;99.90
17092;DHT22;8661;45.700;4.880;2023-05-02T08:11:10;21.00;99.90
17092;DHT22;8661;45.700;4.880;2023-05-02T08:13:37;21.80;99.90
17092;DHT22;8661;45.700;4.880;2023-05-02T08:16:04;22.30;97.80
17092;DHT22;8661;45.700;4.880;2023-05-02T08:18:32;22.20;96.90
17092;DHT22;8661;45.700;4.880;2023-05-02T08:20:59;22.60;96.50
17092;DHT22;8661;45.700;4.880;2023-05-02T08:23:26;23.20;94.80
17092;DHT22;8661;45.700;4.880;2023-05-02T08:25:53;23.40;94.00
17092;DHT22;8661;45.700;4.880;2023-05-02T08:28:20;23.40;93.10
17092;DHT22;8661;45.700;4.880;2023-05-02T08:30:47;23.60;92.30
17092;DHT22;8661;45.700;4.880;2023-05-02T08:33:14;23.90;91.40
17092;DHT22;8661;45.700;4.880;2023-05-02T08:35:42;24.00;91.00
17092;DHT22;8661;45.700;4.880;2023-05-02T08:38:09;24.40;90.50
17092;DHT22;8661;45.700;4.880;2023-05-02T08:40:37;24.70;89.50
17092;DHT22;8661;45.700;4.880;2023-05-02T08:43:04;24.80;87.60
17092;DHT22;8661;45.700;4.880;2023-05-02T08:45:34;25.10;87.50
17092;DHT22;8661;45.700;4.880;2023-05-02T08:48:05;25.00;84.80
17092;DHT22;8661;45.700;4.880;2023-05-02T08:50:36;24.40;86.50
17092;DHT22;8661;45.700;4.880;2023-05-02T08:53:05;24.80;87.20
17092;DHT22;8661;45.700;4.880;2023-05-02T08:55:33;24.90;85.70
17092;DHT22;8661;45.700;4.880;2023-05-02T08:58:02;25.20;85.20
17092;DHT22;8661;45.700;4.880;2023-05-02T09:00:29;25.30;83.10
17092;DHT22;8661;45.700;4.880;2023-05-02T09:03:05;25.30;84.00
17092;DHT22;8661;45.700;4.880;2023-05-02T09:05:38;25.80;82.30
17092;DHT22;8661;45.700;4.880;2023-05-02T09:08:07;26.20;81.10
17092;DHT22;8661;45.700;4.880;2023-05-02T09:10:34;26.40;80.40
17092;DHT22;8661;45.700;4.880;2023-05-02T09:13:29;26.30;79.60
17092;DHT22;8661;45.700;4.880;2023-05-02T09:15:57;26.30;78.40
17092;DHT22;8661;45.700;4.880;2023-05-02T09:18:30;26.80;78.20
17092;DHT22;8661;45.700;4.880;2023-05-02T09:20:58;27.10;77.30
17092;DHT22;8661;45.700;4.880;2023-05-02T09:23:34;27.10;78.80
17092;DHT22;8661;45.700;4.880;2023-05-02T09:26:09;27.50;76.70
17092;DHT22;8661;45.700;4.880;2023-05-02T09:28:40;27.20;75.70
17092;DHT22;8661;45.700;4.880;2023-05-02T09:31:08;26.80;76.70
17092;DHT22;8661;45.700;4.880;2023-05-02T09:33:36;27.00;76.20
17092;DHT22;8661;45.700;4.880;2023-05-02T09:36:03;27.40;75.30
17092;DHT22;8661;45.700;4.880;2023-05-02T09:38:33;27.40;73.80
17092;DHT22;8661;45.700;4.880;2023-05-02T09:41:00;27.40;73.80
17092;DHT22;8661;45.700;4.880;2023-05-02T09:43:28;27.80;73.50
17092;DHT22;8661;45.700;4.880;2023-05-02T09:45:56;28.00;73.30
17092;DHT22;8661;45.700;4.880;2023-05-02T09:48:23;27.80;72.30
17092;DHT22;8661;45.700;4.880;2023-05-02T09:50:50;27.70;73.40
17092;DHT22;8661;45.700;4.880;2023-05-02T09:53:17;28.00;72.30
17092;DHT22;8661;45.700;4.880;2023-05-02T09:55:45;28.40;71.40
17092;DHT22;8661;45.700;4.880;2023-05-02T09:58:22;29.00;70.40
17092;DHT22;8661;45.700;4.880;2023-05-02T10:00:50;29.20;68.20
17092;DHT22;8661;45.700;4.880;2023-05-02T10:03:18;29.40;68.20
17092;DHT22;8661;45.700;4.880;2023-05-02T10:05:46;29.40;67.50
17092;DHT22;8661;45.700;4.880;2023-05-02T10:08:13;29.40;67.60
17092;DHT22;8661;45.700;4.880;2023-05-02T10:10:48;29.60;67.50
17092;DHT22;8661;45.700;4.880;2023-05-02T10:13:19;29.70;67.00
17092;DHT22;8661;45.700;4.880;2023-05-02T10:15:48;29.50;67.10
17092;DHT22;8661;45.700;4.880;2023-05-02T10:18:20;29.90;69.00
17092;DHT22;8661;45.700;4.880;2023-05-02T10:20:54;30.20;66.80
17092;DHT22;8661;45.700;4.880;2023-05-02T10:23:25;30.00;66.50
17092;DHT22;8661;45.700;4.880;2023-05-02T10:25:54;30.00;66.90
17092;DHT22;8661;45.700;4.880;2023-05-02T10:28:21;30.30;68.60
17092;DHT22;8661;45.700;4.880;2023-05-02T10:30:49;30.90;66.10
17092;DHT22;8661;45.700;4.880;2023-05-02T10:33:17;30.80;63.70
17092;DHT22;8661;45.700;4.880;2023-05-02T10:35:45;30.80;64.00
17092;DHT22;8661;45.700;4.880;2023-05-02T10:38:13;30.90;64.80
17092;DHT22;8661;45.700;4.880;2023-05-02T10:40:47;30.70;63.40
17092;DHT22;8661;45.700;4.880;2023-05-02T10:43:22;30.80;62.90
17092;DHT22;8661;45.700;4.880;2023-05-02T10:45:51;30.80;62.60
17092;DHT22;8661;45.700;4.880;2023-05-02T10:48:19;31.10;63.10
17092;DHT22;8661;45.700;4.880;2023-05-02T10:50:48;31.00;62.00
17092;DHT22;8661;45.700;4.880;2023-05-02T10:53:31;30.80;61.20
17092;DHT22;8661;45.700;4.880;2023-05-02T10:56:08;30.80;60.70
17092;DHT22;8661;45.700;4.880;2023-05-02T10:58:38;30.80;60.60
17092;DHT22;8661;45.700;4.880;2023-05-02T11:04:09;29.90;62.50
17092;DHT22;8661;45.700;4.880;2023-05-02T11:09:34;30.00;61.80
17092;DHT22;8661;45.700;4.880;2023-05-02T11:12:01;30.20;61.20
17092;DHT22;8661;45.700;4.880;2023-05-02T11:14:43;30.30;61.70
17092;DHT22;8661;45.700;4.880;2023-05-02T11:17:11;30.60;60.40
17092;DHT22;8661;45.700;4.880;2023-05-02T11:22:57;31.00;58.40
17092;DHT22;8661;45.700;4.880;2023-05-02T11:25:35;30.90;60.50
17092;DHT22;8661;45.700;4.880;2023-05-02T11:28:08;31.30;59.80
17092;DHT22;8661;45.700;4.880;2023-05-02T11:30:55;31.30;60.10
17092;DHT22;8661;45.700;4.880;2023-05-02T11:33:22;31.20;59.90
17092;DHT22;8661;45.700;4.880;2023-05-02T11:35:49;31.50;59.20
17092;DHT22;8661;45.700;4.880;2023-05-02T11:38:19;31.40;58.70
17092;DHT22;8661;45.700;4.880;2023-05-02T11:40:50;31.60;58.70
17092;DHT22;8661;45.700;4.880;2023-05-02T11:43:18;31.60;58.80
17092;DHT22;8661;45.700;4.880;2023-05-02T11:45:46;31.40;58.50
17092;DHT22;8661;45.700;4.880;2023-05-02T11:48:16;31.40;58.80
17092;DHT22;8661;45.700;4.880;2023-05-02T11:50:44;31.20;58.00
17092;DHT22;8661;45.700;4.880;2023-05-02T11:53:12;31.30;58.40
17092;DHT22;8661;45.700;4.880;2023-05-02T11:55:47;31.50;58.30
17092;DHT22;8661;45.700;4.880;2023-05-02T11:58:15;31.30;58.30
17092;DHT22;8661;45.700;4.880;2023-05-02T12:00:43;31.60;58.80
17092;DHT22;8661;45.700;4.880;2023-05-02T12:03:25;31.50;57.70
17092;DHT22;8661;45.700;4.880;2023-05-02T12:05:52;31.50;56.80
17092;DHT22;8661;45.700;4.880;2023-05-02T12:08:21;31.10;58.80
17092;DHT22;8661;45.700;4.880;2023-05-02T12:10:49;31.00;59.10
17092;DHT22;8661;45.700;4.880;2023-05-02T12:13:17;31.00;58.20
17092;DHT22;8661;45.700;4.880;2023-05-02T12:15:44;31.30;57.80
17092;DHT22;8661;45.700;4.880;2023-05-02T12:18:12;31.30;57.40
17092;DHT22;8661;45.700;4.880;2023-05-02T12:20:41;31.20;57.10
17092;DHT22;8661;45.700;4.880;2023-05-02T12:23:08;30.90;57.60
17092;DHT22;8661;45.700;4.880;2023-05-02T12:25:37;30.70;57.00
17092;DHT22;8661;45.700;4.880;2023-05-02T12:28:04;30.40;57.40
17092;DHT22;8661;45.700;4.880;2023-05-02T12:30:32;30.00;57.70
17092;DHT22;8661;45.700;4.880;2023-05-02T12:33:00;30.20;58.20
17092;DHT22;8661;45.700;4.880;2023-05-02T12:35:27;30.30;57.80
17092;DHT22;8661;45.700;4.880;2023-05-02T12:38:07;29.90;58.10
17092;DHT22;8661;45.700;4.880;2023-05-02T12:40:35;30.40;58.20
17092;DHT22;8661;45.700;4.880;2023-05-02T12:43:03;30.50;57.40
17092;DHT22;8661;45.700;4.880;2023-05-02T12:45:32;30.40;57.80
17092;DHT22;8661;45.700;4.880;2023-05-02T12:47:59;30.40;57.70
17092;DHT22;8661;45.700;4.880;2023-05-02T12:50:36;30.50;58.10
17092;DHT22;8661;45.700;4.880;2023-05-02T12:53:04;30.50;57.10
17092;DHT22;8661;45.700;4.880;2023-05-02T12:55:32;30.20;58.10
17092;DHT22;8661;45.700;4.880;2023-05-02T12:58:00;29.80;57.90
17092;DHT22;8661;45.700;4.880;2023-05-02T13:00:27;29.70;58.20
17092;DHT22;8661;45.700;4.880;2023-05-02T13:02:54;29.60;58.20
17092;DHT22;8661;45.700;4.880;2023-05-02T13:05:21;29.80;58.50
17092;DHT22;8661;45.700;4.880;2023-05-02T13:07:48;30.00;58.00
17092;DHT22;8661;45.700;4.880;2023-05-02T13:10:16;30.00;58.10
17092;DHT22;8661;45.700;4.880;2023-05-02T13:12:43;30.00;57.80
17092;DHT22;8661;45.700;4.880;2023-05-02T13:15:11;30.30;58.20
17092;DHT22;8661;45.700;4.880;2023-05-02T13:17:38;30.40;58.10
17092;DHT22;8661;45.700;4.880;2023-05-02T13:20:06;30.40;57.90
17092;DHT22;8661;45.700;4.880;2023-05-02T13:22:33;30.20;58.20
17092;DHT22;8661;45.700;4.880;2023-05-02T13:25:01;30.40;57.80
17092;DHT22;8661;45.700;4.880;2023-05-02T13:27:29;30.30;57.70
17092;DHT22;8661;45.700;4.880;2023-05-02T13:29:58;30.20;58.00
17092;DHT22;8661;45.700;4.880;2023-05-02T13:32:26;30.30;57.90
17092;DHT22;8661;45.700;4.880;2023-05-02T13:34:53;30.30;58.00
17092;DHT22;8661;45.700;4.880;2023-05-02T13:37:20;29.80;57.70
17092;DHT22;8661;45.700;4.880;2023-05-02T13:39:47;29.20;58.70
17092;DHT22;8661;45.700;4.880;2023-05-02T13:42:14;29.10;58.90
17092;DHT22;8661;45.700;4.880;2023-05-02T13:44:42;29.60;58.80
17092;DHT22;8661;45.700;4.880;2023-05-02T13:47:09;29.80;57.90
17092;DHT22;8661;45.700;4.880;2023-05-02T13:49:36;30.00;58.70
17092;DHT22;8661;45.700;4.880;2023-05-02T13:52:03;29.90;58.50
17092;DHT22;8661;45.700;4.880;2023-05-02T13:54:30;30.10;58.60
17092;DHT22;8661;45.700;4.880;2023-05-02T13:56:57;30.20;58.20
17092;DHT22;8661;45.700;4.880;2023-05-02T13:59:24;30.10;58.30
17092;DHT22;8661;45.700;4.880;2023-05-02T14:01:52;29.80;57.90
17092;DHT22;8661;45.700;4.880;2023-05-02T14:04:19;29.50;58.30
17092;DHT22;8661;45.700;4.880;2023-05-02T14:06:45;29.50;58.10
17092;DHT22;8661;45.700;4.880;2023-05-02T14:09:12;29.70;58.70
17092;DHT22;8661;45.700;4.880;2023-05-02T14:11:40;29.60;58.00
17092;DHT22;8661;45.700;4.880;2023-05-02T14:14:08;29.60;57.80
17092;DHT22;8661;45.700;4.880;2023-05-02T14:16:37;29.50;57.70
17092;DHT22;8661;45.700;4.880;2023-05-02T14:19:05;29.00;58.30
17092;DHT22;8661;45.700;4.880;2023-05-02T14:21:32;28.30;58.70
17092;DHT22;8661;45.700;4.880;2023-05-02T14:23:59;28.50;58.90
17092;DHT22;8661;45.700;4.880;2023-05-02T14:26:26;29.00;58.10
17092;DHT22;8661;45.700;4.880;2023-05-02T14:28:52;29.70;57.80
17092;DHT22;8661;45.700;4.880;2023-05-02T14:31:19;30.20;56.50
17092;DHT22;8661;45.700;4.880;2023-05-02T14:33:46;30.50;56.20
17092;DHT22;8661;45.700;4.880;2023-05-02T14:36:14;30.40;56.20
17092;DHT22;8661;45.700;4.880;2023-05-02T14:38:41;30.60;56.20
17092;DHT22;8661;45.700;4.880;2023-05-02T14:41:08;30.60;56.20
17092;DHT22;8661;45.700;4.880;2023-05-02T14:43:35;29.50;56.40
17092;DHT22;8661;45.700;4.880;2023-05-02T14:46:03;28.70;58.00
17092;DHT22;8661;45.700;4.880;2023-05-02T14:48:30;28.30;58.60
17092;DHT22;8661;45.700;4.880;2023-05-02T14:50:57;27.90;58.70
17092;DHT22;8661;45.700;4.880;2023-05-02T14:53:27;27.80;59.30
17092;DHT22;8661;45.700;4.880;2023-05-02T14:55:53;27.60;59.50
17092;DHT22;8661;45.700;4.880;2023-05-02T14:58:20;27.20;59.70
17092;DHT22;8661;45.700;4.880;2023-05-02T15:00:47;26.60;60.70
17092;DHT22;8661;45.700;4.880;2023-05-02T15:03:14;26.30;61.60
17092;DHT22;8661;45.700;4.880;2023-05-02T15:05:41;26.10;62.10
17092;DHT22;8661;45.700;4.880;2023-05-02T15:08:08;26.10;62.50
17092;DHT22;8661;45.700;4.880;2023-05-02T15:10:39;25.90;62.20
17092;DHT22;8661;45.700;4.880;2023-05-02T15:13:06;25.70;62.70
17092;DHT22;8661;45.700;4.880;2023-05-02T15:15:33;25.80;63.60
17092;DHT22;8661;45.700;4.880;2023-05-02T15:18:00;25.70;63.30
17092;DHT22;8661;45.700;4.880;2023-05-02T15:20:27;25.70;62.80
17092;DHT22;8661;45.700;4.880;2023-05-02T15:22:54;25.50;62.70
17092;DHT22;8661;45.700;4.880;2023-05-02T15:25:23;25.00;63.30
17092;DHT22;8661;45.700;4.880;2023-05-02T15:27:51;24.80;64.60
17092;DHT22;8661;45.700;4.880;2023-05-02T15:30:18;24.60;65.70
17092;DHT22;8661;45.700;4.880;2023-05-02T15:32:45;24.40;65.10
17092;DHT22;8661;45.700;4.880;2023-05-02T15:35:12;24.20;64.60
17092;DHT22;8661;45.700;4.880;2023-05-02T15:37:39;24.10;65.20
17092;DHT22;8661;45.700;4.880;2023-05-02T15:40:07;23.90;65.80
17092;DHT22;8661;45.700;4.880;2023-05-02T15:42:34;23.80;66.00
17092;DHT22;8661;45.700;4.880;2023-05-02T15:45:04;23.50;66.50
17092;DHT22;8661;45.700;4.880;2023-05-02T15:47:31;23.40;66.60
17092;DHT22;8661;45.700;4.880;2023-05-02T15:49:58;23.10;66.60
17092;DHT22;8661;45.700;4.880;2023-05-02T15:52:25;23.10;67.10
17092;DHT22;8661;45.700;4.880;2023-05-02T15:54:52;23.10;67.10
17092;DHT22;8661;45.700;4.880;2023-05-02T15:57:20;23.10;67.10
17092;DHT22;8661;45.700;4.880;2023-05-02T15:59:47;23.00;67.30
17092;DHT22;8661;45.700;4.880;2023-05-02T16:02:15;22.90;67.80